Jay, Florida
Current Conditions -  °F | °C
As of 11:56 PM on Friday 19 Dec 2014 (Local Time) from KNSE Reporting Station
Overcast Overcast  
Wind Chill: 44°   Ceiling: 500
Heat Index: 47°   Visibility: 9mi
Dew Point: 47°   Wind: 7mph
Humidity: 100%   Direction: 50°NE
Pressure: 30.11"   Gusts: NA
Location:  30.95°N, 87.15°W
Report Text: KNSE 200556Z AUTO 05006KT 9SM OVC005 08/08 A3011 RMK AO2 CIG 004V008 SLP182 60003 T00830083 10094 20083 401220083 56012 $
Loading
Personal Weather Stations






























Interactive Weather Map New forecast layout! Learn more

10-Day Weather Forecast

Advertisements
Track Severe Weather on mobile